Time;durP1;ratioP1;P1;durP2;ratioP2;P2;SDS_P1;SDS_P2;PMS_P1;PMS_P2;Temp;Humidity;BMP_temperature;BMP_pressure;BME280_temperature;BME280_humidity;BME280_pressure;Samples;Min_cycle;Max_cycle;Signal;HPM_P1;HPM_P2
2023/03/02 00:01:52;;;;;;;0.70;0.70;;;;;;;5.80;100.00;100760.34;5015382;28;20196;-77
2023/03/02 00:04:22;;;;;;;0.97;0.97;;;;;;;5.84;100.00;100757.09;5006959;28;20200;-77
2023/03/02 00:06:51;;;;;;;0.60;0.60;;;;;;;5.95;100.00;100761.06;4995411;28;20208;-77
2023/03/02 00:09:18;;;;;;;3.23;3.03;;;;;;;6.02;100.00;100757.94;5019413;28;20192;-76
2023/03/02 00:11:47;;;;;;;0.70;0.70;;;;;;;6.03;100.00;100767.41;5015563;28;20219;-76
2023/03/02 00:14:13;;;;;;;1.23;1.23;;;;;;;5.96;100.00;100779.13;4992623;28;20203;-76
2023/03/02 00:16:40;;;;;;;0.70;0.70;;;;;;;5.98;100.00;100771.47;5015097;28;20212;-76
2023/03/02 00:19:07;;;;;;;7.90;2.03;;;;;;;6.02;100.00;100773.38;5011822;28;20197;-76
2023/03/02 00:21:34;;;;;;;0.67;0.67;;;;;;;5.86;100.00;100770.94;4994487;28;20203;-76
2023/03/02 00:24:01;;;;;;;0.80;0.80;;;;;;;5.86;100.00;100765.78;5031361;28;20667;-76
2023/03/02 00:26:27;;;;;;;0.80;0.80;;;;;;;5.94;100.00;100765.31;5026285;28;20201;-76
2023/03/02 00:28:56;;;;;;;1.60;1.53;;;;;;;5.91;100.00;100749.75;5022408;28;20659;-76
2023/03/02 00:31:22;;;;;;;0.60;0.60;;;;;;;5.83;100.00;100745.91;5019626;28;20212;-76
2023/03/02 00:33:50;;;;;;;0.70;0.70;;;;;;;6.00;100.00;100764.69;5011122;28;20227;-76
2023/03/02 00:36:17;;;;;;;0.73;0.73;;;;;;;5.75;100.00;100731.81;5016182;28;20276;-77
2023/03/02 00:38:44;;;;;;;1.10;1.10;;;;;;;5.98;100.00;100761.19;4994839;28;20196;-75
2023/03/02 00:41:11;;;;;;;0.70;0.70;;;;;;;5.40;100.00;100665.06;5021699;28;20200;-75
2023/03/02 00:43:38;;;;;;;0.80;0.80;;;;;;;5.68;100.00;100729.78;5024035;28;20698;-76
2023/03/02 00:46:11;;;;;;;0.90;0.90;;;;;;;5.88;100.00;100759.03;4977002;28;20211;-76
2023/03/02 00:48:38;;;;;;;0.80;0.80;;;;;;;5.94;100.00;100761.84;5020813;28;20200;-76
2023/03/02 00:51:06;;;;;;;0.70;0.70;;;;;;;5.98;100.00;100761.19;5028811;28;20193;-76
2023/03/02 00:53:33;;;;;;;0.67;0.67;;;;;;;5.82;100.00;100733.84;5029952;28;20930;-76
2023/03/02 00:56:01;;;;;;;1.67;1.57;;;;;;;5.64;100.00;100703.84;5029466;28;20215;-76
2023/03/02 00:58:28;;;;;;;0.70;0.70;;;;;;;5.65;100.00;100703.94;5014656;28;20197;-76
2023/03/02 01:00:55;;;;;;;1.03;1.03;;;;;;;5.89;100.00;100735.03;5019076;28;20212;-77
2023/03/02 01:03:24;;;;;;;0.83;0.83;;;;;;;5.99;100.00;100738.06;5013328;28;20214;-76
2023/03/02 01:05:55;;;;;;;1.00;1.00;;;;;;;5.82;100.00;100713.25;5015870;28;20212;-76
2023/03/02 01:08:22;;;;;;;2.10;1.73;;;;;;;5.87;100.00;100739.25;4979218;28;20230;-76
2023/03/02 01:10:49;;;;;;;0.70;0.70;;;;;;;5.91;100.00;100734.31;5011578;28;20283;-76
2023/03/02 01:13:16;;;;;;;0.70;0.70;;;;;;;5.86;100.00;100729.75;5019786;28;20228;-75
2023/03/02 01:15:42;;;;;;;0.80;0.80;;;;;;;5.95;100.00;100732.75;5018306;28;20694;-75
2023/03/02 01:18:09;;;;;;;0.80;0.80;;;;;;;5.92;100.00;100732.63;5026772;28;20211;-76
2023/03/02 01:20:38;;;;;;;0.80;0.80;;;;;;;5.89;100.00;100735.91;5030610;28;20291;-76
2023/03/02 01:23:05;;;;;;;0.80;0.80;;;;;;;5.72;100.00;100729.13;5016359;28;20211;-76
2023/03/02 01:25:31;;;;;;;0.90;0.90;;;;;;;5.78;100.00;100733.66;5026046;28;20207;-75
2023/03/02 01:27:58;;;;;;;0.90;0.90;;;;;;;5.76;100.00;100728.44;5017310;28;20212;-75
2023/03/02 01:30:25;;;;;;;1.70;1.33;;;;;;;5.68;100.00;100728.91;5023807;28;20197;-76
2023/03/02 01:32:52;;;;;;;0.70;0.70;;;;;;;5.73;100.00;100732.56;5030209;28;20272;-76
2023/03/02 01:35:19;;;;;;;0.70;0.70;;;;;;;5.83;100.00;100739.88;5030634;28;20200;-76
2023/03/02 01:37:47;;;;;;;1.00;1.00;;;;;;;5.95;100.00;100738.78;5016556;28;20225;-76
2023/03/02 01:40:14;;;;;;;0.90;0.90;;;;;;;5.89;100.00;100723.03;5010803;28;20220;-76
2023/03/02 01:42:51;;;;;;;14.90;8.00;;;;;;;5.94;100.00;100725.81;5025383;28;20208;-77
2023/03/02 01:45:44;;;;;;;0.60;0.60;;;;;;;6.02;100.00;100747.63;5015447;28;20200;-77
2023/03/02 01:48:12;;;;;;;0.50;0.50;;;;;;;5.68;100.00;100734.03;5013577;28;20196;-76
2023/03/02 01:50:39;;;;;;;0.90;0.90;;;;;;;5.80;100.00;100756.06;5027069;28;20610;-76
2023/03/02 01:53:08;;;;;;;0.70;0.70;;;;;;;5.75;100.00;100747.25;5021013;28;20228;-75
2023/03/02 01:55:38;;;;;;;3.30;2.53;;;;;;;5.72;100.00;100748.81;5017540;28;20660;-75
2023/03/02 01:58:06;;;;;;;3.60;1.63;;;;;;;5.09;100.00;100662.81;5024680;28;20211;-75
2023/03/02 02:00:36;;;;;;;0.60;0.60;;;;;;;5.70;100.00;100753.03;5021870;28;20227;-77
2023/03/02 02:03:08;;;;;;;0.70;0.70;;;;;;;5.66;100.00;100746.84;5021883;28;20203;-76
2023/03/02 02:05:37;;;;;;;0.80;0.80;;;;;;;5.67;100.00;100755.47;5032270;28;20200;-76
2023/03/02 02:08:05;;;;;;;0.70;0.70;;;;;;;5.43;100.00;100716.63;5018719;28;20712;-77
2023/03/02 02:10:35;;;;;;;3.37;3.13;;;;;;;5.59;100.00;100754.22;5028873;28;20201;-77
2023/03/02 02:13:02;;;;;;;0.80;0.80;;;;;;;5.58;100.00;100753.34;5017673;28;20229;-76
2023/03/02 02:15:29;;;;;;;0.80;0.80;;;;;;;5.61;100.00;100752.59;5024467;28;20622;-76
2023/03/02 02:17:55;;;;;;;0.60;0.60;;;;;;;5.46;100.00;100751.06;5017124;28;20204;-76
2023/03/02 02:20:32;;;;;;;1.20;1.20;;;;;;;5.47;100.00;100740.00;4997208;28;20682;-75
2023/03/02 02:23:12;;;;;;;0.70;0.70;;;;;;;5.55;100.00;100757.47;5030082;28;20204;-76
2023/03/02 02:25:58;;;;;;;0.70;0.70;;;;;;;5.47;100.00;100747.72;5013733;28;20201;-76
2023/03/02 02:28:30;;;;;;;0.70;0.70;;;;;;;5.34;100.00;100711.97;5026599;28;20583;-76
2023/03/02 02:31:05;;;;;;;0.80;0.80;;;;;;;5.55;100.00;100742.91;5013886;28;20193;-76
2023/03/02 02:33:34;;;;;;;0.70;0.70;;;;;;;5.35;100.00;100700.84;5021443;28;20723;-76
2023/03/02 02:36:07;;;;;;;0.80;0.80;;;;;;;5.78;100.00;100749.97;5021926;28;20235;-76
2023/03/02 02:38:36;;;;;;;1.57;1.47;;;;;;;5.69;100.00;100754.72;5032471;28;20204;-76
2023/03/02 02:41:07;;;;;;;0.80;0.80;;;;;;;5.64;100.00;100756.19;5027808;28;20215;-76
2023/03/02 02:43:34;;;;;;;0.90;0.90;;;;;;;5.47;100.00;100763.13;5031785;28;20659;-76
2023/03/02 02:46:02;;;;;;;0.70;0.70;;;;;;;5.46;100.00;100757.91;5014149;28;20215;-76
2023/03/02 02:48:32;;;;;;;0.80;0.80;;;;;;;5.45;100.00;100757.06;5023900;28;20200;-75
2023/03/02 02:51:01;;;;;;;1.50;1.40;;;;;;;5.46;100.00;100745.94;5024676;28;20212;-76
2023/03/02 02:53:35;;;;;;;0.90;0.90;;;;;;;5.54;100.00;100759.16;5020283;28;20658;-76
2023/03/02 02:56:06;;;;;;;0.97;0.97;;;;;;;5.56;100.00;100752.41;5025361;28;20203;-76
2023/03/02 02:58:36;;;;;;;0.90;0.90;;;;;;;5.69;100.00;100752.13;5022011;28;20542;-76
2023/03/02 03:01:03;;;;;;;1.23;1.23;;;;;;;5.66;100.00;100746.84;5032098;28;20725;-76
2023/03/02 03:03:33;;;;;;;0.87;0.87;;;;;;;5.49;100.00;100753.78;5001072;28;20646;-75
2023/03/02 03:06:02;;;;;;;0.73;0.73;;;;;;;5.46;100.00;100750.19;5015212;28;20197;-75
2023/03/02 03:08:54;;;;;;;0.80;0.80;;;;;;;5.58;100.00;100747.31;5012764;28;20644;-75
2023/03/02 03:11:25;;;;;;;0.70;0.70;;;;;;;5.60;100.00;100750.84;5013969;28;20197;-75
2023/03/02 03:13:57;;;;;;;0.90;0.90;;;;;;;5.34;100.00;100737.69;5012904;28;20229;-75
2023/03/02 03:16:25;;;;;;;1.10;1.10;;;;;;;5.43;100.00;100742.34;5015771;28;20215;-75
2023/03/02 03:18:53;;;;;;;0.90;0.90;;;;;;;5.29;100.00;100728.88;5026614;28;20212;-76
2023/03/02 03:21:20;;;;;;;0.80;0.80;;;;;;;4.95;100.00;100658.72;5013082;28;20682;-75
2023/03/02 03:23:48;;;;;;;0.80;0.80;;;;;;;5.34;100.00;100742.81;5022092;28;20204;-75
2023/03/02 03:26:15;;;;;;;0.70;0.70;;;;;;;5.27;100.00;100738.22;4987802;28;20239;-75
2023/03/02 03:28:43;;;;;;;1.67;1.57;;;;;;;5.29;100.00;100721.16;5012553;28;20201;-75
2023/03/02 03:31:10;;;;;;;1.00;1.00;;;;;;;5.36;100.00;100733.47;4980201;28;20237;-76
2023/03/02 03:33:37;;;;;;;0.83;0.83;;;;;;;5.36;100.00;100730.03;5022516;28;20301;-76
2023/03/02 03:36:04;;;;;;;0.70;0.70;;;;;;;5.41;100.00;100734.56;5012519;28;20197;-76
2023/03/02 03:38:31;;;;;;;0.60;0.60;;;;;;;5.30;100.00;100733.19;5012065;28;20201;-76
2023/03/02 03:40:58;;;;;;;0.80;0.80;;;;;;;4.98;100.00;100685.44;5012101;28;20207;-76
2023/03/02 03:43:25;;;;;;;2.37;2.10;;;;;;;5.21;100.00;100734.47;5012044;28;20691;-75
2023/03/02 03:45:53;;;;;;;0.70;0.70;;;;;;;5.25;100.00;100734.66;5012249;28;20208;-76
2023/03/02 03:48:20;;;;;;;0.97;0.97;;;;;;;5.17;100.00;100736.03;5015342;28;20196;-75
2023/03/02 03:50:46;;;;;;;1.00;1.00;;;;;;;5.06;100.00;100736.31;5030197;28;20215;-76
2023/03/02 03:53:13;;;;;;;0.87;0.87;;;;;;;5.16;100.00;100735.94;5030971;28;20238;-76
2023/03/02 03:55:40;;;;;;;0.57;0.57;;;;;;;5.14;100.00;100737.53;5018792;28;20188;-76
2023/03/02 03:58:07;;;;;;;1.17;1.17;;;;;;;5.10;100.00;100733.94;5028747;28;20662;-77
2023/03/02 04:00:34;;;;;;;0.70;0.70;;;;;;;4.95;100.00;100710.13;5020599;28;20197;-76
2023/03/02 04:03:02;;;;;;;0.80;0.80;;;;;;;5.09;100.00;100718.47;5021706;28;20213;-77
2023/03/02 04:05:29;;;;;;;0.80;0.80;;;;;;;5.13;100.00;100733.22;5022316;28;20200;-76
2023/03/02 04:07:56;;;;;;;0.77;0.77;;;;;;;5.05;100.00;100734.56;5013649;28;20195;-77
2023/03/02 04:10:22;;;;;;;0.57;0.57;;;;;;;5.17;100.00;100736.03;5020231;28;20208;-77
2023/03/02 04:12:49;;;;;;;0.80;0.80;;;;;;;5.09;100.00;100734.78;5019429;28;20679;-76
2023/03/02 04:15:17;;;;;;;1.10;1.10;;;;;;;5.16;100.00;100734.25;5011620;28;20592;-76
2023/03/02 04:17:44;;;;;;;0.70;0.70;;;;;;;5.12;100.00;100709.22;5014088;28;20227;-76
2023/03/02 04:20:15;;;;;;;0.70;0.70;;;;;;;5.01;100.00;100702.69;4983781;28;20652;-75
2023/03/02 04:22:43;;;;;;;1.00;1.00;;;;;;;5.21;100.00;100730.19;5014132;28;20200;-76
2023/03/02 04:25:11;;;;;;;1.57;1.57;;;;;;;5.15;100.00;100732.47;5030966;28;20671;-77
2023/03/02 04:27:38;;;;;;;3.33;3.13;;;;;;;4.32;100.00;100600.94;5020126;28;20197;-77
2023/03/02 04:30:07;;;;;;;8.33;2.03;;;;;;;5.19;100.00;100736.06;5011754;28;20196;-77
2023/03/02 04:32:34;;;;;;;0.90;0.90;;;;;;;5.20;100.00;100730.13;5011607;28;20205;-77
2023/03/02 04:35:00;;;;;;;0.67;0.67;;;;;;;5.20;100.00;100736.16;5015703;28;20239;-78
2023/03/02 04:37:29;;;;;;;0.80;0.80;;;;;;;5.20;100.00;100735.28;5026041;28;20221;-76
2023/03/02 04:39:56;;;;;;;2.30;2.20;;;;;;;5.02;100.00;100743.00;5021060;28;20193;-76
2023/03/02 04:42:22;;;;;;;0.87;0.87;;;;;;;4.88;100.00;100744.03;5027227;28;20600;-76
2023/03/02 04:44:49;;;;;;;0.70;0.70;;;;;;;4.86;100.00;100741.38;5016219;28;20201;-76
2023/03/02 04:47:16;;;;;;;0.90;0.90;;;;;;;4.81;100.00;100747.13;5024373;28;20203;-77
2023/03/02 04:49:43;;;;;;;0.60;0.60;;;;;;;4.80;100.00;100735.06;5014468;28;20209;-77
2023/03/02 04:52:10;;;;;;;0.90;0.90;;;;;;;4.74;100.00;100750.19;5011585;28;20197;-78
2023/03/02 04:54:38;;;;;;;0.60;0.60;;;;;;;4.62;100.00;100724.78;5025524;28;20703;-76
2023/03/02 04:57:07;;;;;;;0.60;0.60;;;;;;;4.65;100.00;100744.59;5023625;28;20199;-77
2023/03/02 04:59:35;;;;;;;0.80;0.80;;;;;;;4.59;100.00;100750.31;5030816;28;20628;-76
2023/03/02 05:02:01;;;;;;;6.37;2.80;;;;;;;4.54;100.00;100750.88;5021278;28;20209;-77
2023/03/02 05:04:29;;;;;;;0.87;0.87;;;;;;;4.52;100.00;100735.41;4976655;28;20204;-76
2023/03/02 05:06:56;;;;;;;0.73;0.73;;;;;;;4.55;100.00;100752.66;5018812;28;20196;-76
2023/03/02 05:09:26;;;;;;;0.73;0.73;;;;;;;4.26;100.00;100728.97;5029960;28;20580;-76
2023/03/02 05:11:55;;;;;;;0.80;0.80;;;;;;;4.88;100.00;100749.19;5021756;28;20193;-74
2023/03/02 05:14:22;;;;;;;0.80;0.80;;;;;;;4.60;100.00;100764.03;5024568;28;20247;-76
2023/03/02 05:16:49;;;;;;;1.07;1.07;;;;;;;4.07;100.00;100739.09;5020462;28;20207;-74
2023/03/02 05:19:16;;;;;;;1.03;1.03;;;;;;;4.13;100.00;100762.53;5029845;28;20208;-75
2023/03/02 05:21:42;;;;;;;1.57;1.57;;;;;;;4.29;100.00;100774.44;5024373;28;20205;-78
2023/03/02 05:24:10;;;;;;;1.00;1.00;;;;;;;4.41;100.00;100783.66;5028841;28;20298;-77
2023/03/02 05:26:37;;;;;;;0.87;0.87;;;;;;;4.35;100.00;100788.47;5020165;28;20205;-75
2023/03/02 05:29:06;;;;;;;1.20;1.20;;;;;;;4.34;100.00;100776.47;4982753;28;20205;-75
2023/03/02 05:31:36;;;;;;;0.80;0.80;;;;;;;4.32;100.00;100796.00;5012367;28;20200;-76
2023/03/02 05:34:04;;;;;;;0.70;0.70;;;;;;;4.15;100.00;100785.69;5000715;28;20236;-74
2023/03/02 05:36:32;;;;;;;1.27;1.27;;;;;;;4.03;100.00;100805.59;5018950;28;20233;-74
2023/03/02 05:38:59;;;;;;;0.80;0.80;;;;;;;4.06;100.00;100811.78;5012521;28;20227;-73
2023/03/02 05:41:26;;;;;;;7.07;4.00;;;;;;;4.11;100.00;100812.00;5012848;28;20586;-73
2023/03/02 05:43:53;;;;;;;0.80;0.80;;;;;;;3.87;100.00;100809.03;5014734;28;20690;-76
2023/03/02 05:46:21;;;;;;;0.83;0.83;;;;;;;4.23;100.00;100826.38;5014767;28;20211;-74
2023/03/02 05:48:48;;;;;;;0.80;0.80;;;;;;;4.15;100.00;100826.75;5019114;28;20208;-76
2023/03/02 05:51:15;;;;;;;0.80;0.80;;;;;;;3.71;100.00;100773.97;5018952;28;20196;-74
2023/03/02 05:53:42;;;;;;;0.90;0.90;;;;;;;3.93;100.00;100841.00;5018296;28;20232;-75
2023/03/02 05:56:09;;;;;;;1.00;1.00;;;;;;;4.04;100.00;100839.03;5017836;28;20208;-76
2023/03/02 05:58:36;;;;;;;6.27;2.77;;;;;;;3.96;100.00;100840.28;5027664;28;20236;-75
2023/03/02 06:01:08;;;;;;;0.80;0.80;;;;;;;3.85;100.00;100821.75;5022637;28;20216;-74
2023/03/02 06:03:37;;;;;;;0.73;0.73;;;;;;;3.79;100.00;100830.81;5025413;28;20259;-75
2023/03/02 06:06:04;;;;;;;1.33;1.33;;;;;;;3.85;100.00;100841.44;5023455;28;20208;-75
2023/03/02 06:08:31;;;;;;;0.50;0.50;;;;;;;3.60;100.00;100818.72;4989495;28;20208;-72
2023/03/02 06:10:57;;;;;;;0.90;0.90;;;;;;;3.88;100.00;100847.59;5023158;28;20220;-74
2023/03/02 06:13:24;;;;;;;1.43;1.43;;;;;;;3.94;100.00;100842.78;5013818;28;20597;-76
2023/03/02 06:15:51;;;;;;;0.83;0.83;;;;;;;3.94;100.00;100831.66;4995109;28;20287;-76
2023/03/02 06:18:18;;;;;;;0.70;0.70;;;;;;;3.98;100.00;100834.47;5022843;28;20212;-75
2023/03/02 06:20:46;;;;;;;0.80;0.80;;;;;;;3.96;100.00;100846.31;5019541;28;20207;-76
2023/03/02 06:23:13;;;;;;;0.60;0.60;;;;;;;4.16;100.00;100834.53;5016513;28;20676;-76
2023/03/02 06:25:42;;;;;;;0.70;0.70;;;;;;;4.00;100.00;100812.31;5015836;28;20209;-77
2023/03/02 06:28:09;;;;;;;0.73;0.67;;;;;;;4.01;100.00;100833.72;5011598;28;20204;-78
2023/03/02 06:30:36;;;;;;;0.97;0.97;;;;;;;4.03;100.00;100833.81;5021024;28;20209;-76
2023/03/02 06:33:02;;;;;;;0.90;0.90;;;;;;;4.07;100.00;100841.75;5013502;28;20209;-76
2023/03/02 06:35:29;;;;;;;0.73;0.73;;;;;;;4.15;100.00;100852.41;5007946;28;20229;-71
2023/03/02 06:37:57;;;;;;;1.77;1.67;;;;;;;4.20;100.00;100851.88;5023250;28;20232;-76
2023/03/02 06:40:24;;;;;;;1.43;1.43;;;;;;;4.11;100.00;100853.94;5014274;28;20732;-75
2023/03/02 06:42:51;;;;;;;0.70;0.70;;;;;;;4.19;100.00;100855.22;5013271;28;20204;-78
2023/03/02 06:45:18;;;;;;;0.90;0.90;;;;;;;4.09;100.00;100836.72;4999518;28;20201;-76
2023/03/02 06:47:44;;;;;;;0.63;0.63;;;;;;;4.32;100.00;100846.47;4999045;28;20216;-75
2023/03/02 06:50:12;;;;;;;0.70;0.70;;;;;;;4.46;100.00;100854.09;5011526;28;20208;-75
2023/03/02 06:52:38;;;;;;;1.43;1.43;;;;;;;4.42;100.00;100836.75;4991151;28;20205;-75
2023/03/02 06:55:08;;;;;;;0.70;0.70;;;;;;;4.35;100.00;100842.38;5009339;28;20236;-75
2023/03/02 06:57:35;;;;;;;0.57;0.57;;;;;;;4.35;100.00;100841.53;5012630;28;20213;-75
2023/03/02 07:00:06;;;;;;;0.83;0.83;;;;;;;4.32;100.00;100839.66;5012514;28;20209;-76
2023/03/02 07:02:33;;;;;;;2.60;2.50;;;;;;;5.12;100.00;100827.44;5012458;28;20205;-74
2023/03/02 07:05:00;;;;;;;2.50;2.30;;;;;;;5.19;100.00;100826.94;5012528;28;20205;-75
2023/03/02 07:07:27;;;;;;;4.30;2.60;;;;;;;4.71;100.00;100839.94;5012445;28;20330;-76
2023/03/02 07:09:53;;;;;;;0.80;0.80;;;;;;;4.63;100.00;100847.25;5012541;28;20220;-75
2023/03/02 07:12:22;;;;;;;0.63;0.63;;;;;;;4.36;100.00;100841.59;5012181;28;20201;-75
2023/03/02 07:14:48;;;;;;;1.70;1.60;;;;;;;4.26;100.00;100826.50;5007048;28;20221;-75
2023/03/02 07:17:15;;;;;;;0.60;0.60;;;;;;;4.47;100.00;100848.16;5009675;28;20205;-75
2023/03/02 07:19:42;;;;;;;1.20;1.20;;;;;;;4.55;100.00;100851.13;5012138;28;20204;-74
2023/03/02 07:22:09;;;;;;;1.03;1.03;;;;;;;3.96;100.00;100776.16;5010627;28;20209;-76
2023/03/02 07:24:35;;;;;;;0.73;0.73;;;;;;;4.37;100.00;100850.16;4993147;28;20202;-74
2023/03/02 07:27:03;;;;;;;0.80;0.80;;;;;;;4.27;100.00;100853.97;4992755;28;20202;-74
2023/03/02 07:29:31;;;;;;;1.10;1.10;;;;;;;4.31;100.00;100857.56;4992620;28;20672;-73
2023/03/02 07:31:59;;;;;;;0.60;0.60;;;;;;;4.12;100.00;100798.38;4992726;28;20206;-75
2023/03/02 07:34:26;;;;;;;0.87;0.87;;;;;;;4.43;100.00;100856.50;4992507;28;20264;-74
2023/03/02 07:36:53;;;;;;;1.27;1.27;;;;;;;4.33;100.00;100850.81;4992675;28;20234;-74
2023/03/02 07:39:20;;;;;;;0.80;0.80;;;;;;;4.28;100.00;100850.56;4992490;28;20208;-74
2023/03/02 07:41:47;;;;;;;0.60;0.60;;;;;;;4.17;100.00;100835.44;4974422;28;20197;-74
2023/03/02 07:44:14;;;;;;;4.10;3.80;;;;;;;4.32;100.00;100855.06;4992342;28;20680;-75
2023/03/02 07:46:42;;;;;;;3.73;3.10;;;;;;;4.20;100.00;100823.63;4992626;28;20602;-75
2023/03/02 07:49:09;;;;;;;1.43;1.43;;;;;;;4.00;100.00;100826.81;4992437;28;20197;-75
2023/03/02 07:51:36;;;;;;;1.00;1.00;;;;;;;4.14;100.00;100840.41;4992393;28;20205;-75
2023/03/02 07:54:03;;;;;;;1.97;1.87;;;;;;;4.00;100.00;100842.22;4990102;28;20590;-75
2023/03/02 07:56:30;;;;;;;0.77;0.77;;;;;;;4.12;100.00;100840.31;4992170;28;20760;-75
2023/03/02 07:58:57;;;;;;;1.03;1.03;;;;;;;4.14;100.00;100841.25;4991532;28;20607;-75
2023/03/02 08:01:24;;;;;;;0.90;0.90;;;;;;;3.93;100.00;100824.75;4992679;28;20202;-74
2023/03/02 08:03:52;;;;;;;2.03;1.93;;;;;;;4.19;100.00;100847.53;4992168;28;20198;-76
2023/03/02 08:06:19;;;;;;;1.10;1.10;;;;;;;4.16;100.00;100844.81;4974149;28;20202;-75
2023/03/02 08:08:46;;;;;;;1.03;1.03;;;;;;;4.11;100.00;100845.34;4974108;28;20224;-75
2023/03/02 08:11:15;;;;;;;2.30;2.20;;;;;;;4.38;100.00;100851.94;4992088;28;20209;-76
2023/03/02 08:13:42;;;;;;;1.57;1.57;;;;;;;4.31;100.00;100845.63;4991946;28;20677;-75
2023/03/02 08:16:11;;;;;;;0.90;0.90;;;;;;;4.24;100.00;100858.03;4991938;28;20233;-77
2023/03/02 08:18:39;;;;;;;0.87;0.87;;;;;;;4.41;100.00;100841.84;4992328;28;20201;-75
2023/03/02 08:21:13;;;;;;;0.80;0.80;;;;;;;4.42;100.00;100859.00;4991888;28;20669;-75
2023/03/02 08:23:40;;;;;;;1.93;1.93;;;;;;;4.26;100.00;100851.28;4991740;28;20329;-76
2023/03/02 08:26:07;;;;;;;0.90;0.90;;;;;;;4.31;100.00;100861.03;4991694;28;20205;-75
2023/03/02 08:28:34;;;;;;;1.47;1.47;;;;;;;4.33;100.00;100861.97;4991917;28;20213;-74
2023/03/02 08:31:03;;;;;;;1.27;1.13;;;;;;;4.57;100.00;100861.44;4991675;28;20582;-71
2023/03/02 08:33:30;;;;;;;0.83;0.83;;;;;;;4.19;100.00;100837.25;4991492;28;20206;-74
2023/03/02 08:35:57;;;;;;;2.40;2.30;;;;;;;4.28;100.00;100858.25;4991614;28;20261;-74
2023/03/02 08:38:26;;;;;;;0.67;0.67;;;;;;;4.42;100.00;100859.84;4989454;28;20228;-74
2023/03/02 08:40:53;;;;;;;0.70;0.70;;;;;;;4.43;100.00;100861.63;4991423;28;20197;-74
2023/03/02 08:43:21;;;;;;;1.17;1.17;;;;;;;4.22;100.00;100839.09;4991376;28;20221;-75
2023/03/02 08:45:51;;;;;;;1.03;1.03;;;;;;;4.33;100.00;100859.41;4991363;28;20212;-75
2023/03/02 08:48:19;;;;;;;0.77;0.77;;;;;;;4.30;100.00;100866.06;4991823;28;20229;-74
2023/03/02 08:50:53;;;;;;;1.70;1.70;;;;;;;4.19;100.00;100862.94;4991536;28;20208;-74
2023/03/02 08:53:20;;;;;;;1.07;1.07;;;;;;;4.06;100.00;100828.84;4973128;28;20201;-75
2023/03/02 08:55:48;;;;;;;1.00;1.00;;;;;;;4.26;100.00;100852.19;4991267;28;20225;-74
2023/03/02 08:58:15;;;;;;;1.03;1.00;;;;;;;4.24;100.00;100838.41;4991322;28;20201;-75
2023/03/02 09:00:42;;;;;;;0.80;0.80;;;;;;;3.86;100.00;100771.34;4991372;28;20205;-75
2023/03/02 09:03:08;;;;;;;1.63;1.57;;;;;;;4.50;100.00;100853.44;4991583;28;20242;-76
2023/03/02 09:05:35;;;;;;;0.77;0.77;;;;;;;4.47;100.00;100862.66;4992703;28;20288;-76
2023/03/02 09:08:02;;;;;;;0.93;0.93;;;;;;;4.28;100.00;100858.25;5010581;28;20302;-74
2023/03/02 09:10:29;;;;;;;0.97;0.97;;;;;;;4.35;100.00;100856.94;5013451;28;20200;-75
2023/03/02 09:12:57;;;;;;;0.60;0.60;;;;;;;4.60;100.00;100864.19;5014423;28;20689;-75
2023/03/02 09:15:24;;;;;;;0.90;0.90;;;;;;;4.41;100.00;100868.38;5014457;28;20236;-75
2023/03/02 09:17:51;;;;;;;0.90;0.90;;;;;;;4.37;100.00;100870.72;5014674;28;20200;-73
2023/03/02 09:20:17;;;;;;;1.47;1.47;;;;;;;4.61;100.00;100855.66;5014672;28;20209;-71
2023/03/02 09:22:49;;;;;;;0.87;0.87;;;;;;;4.48;100.00;100860.19;5000575;28;20200;-72
2023/03/02 09:25:16;;;;;;;4.30;3.97;;;;;;;4.27;100.00;100848.81;5014339;28;20363;-74
2023/03/02 09:27:44;;;;;;;1.00;1.00;;;;;;;4.24;100.00;100834.94;5014424;28;20208;-74
2023/03/02 09:30:15;;;;;;;0.80;0.80;;;;;;;4.56;100.00;100852.00;5014370;28;20207;-73
2023/03/02 09:32:42;;;;;;;0.80;0.80;;;;;;;4.36;100.00;100826.19;5014502;28;20207;-73
2023/03/02 09:35:09;;;;;;;1.13;1.13;;;;;;;4.53;100.00;100841.59;5014349;28;20240;-73
2023/03/02 09:37:37;;;;;;;1.00;1.00;;;;;;;4.60;100.00;100843.66;5013820;28;20743;-72
2023/03/02 09:40:12;;;;;;;1.03;1.03;;;;;;;4.53;100.00;100841.59;4995773;28;20316;-72
2023/03/02 09:42:57;;;;;;;1.53;1.53;;;;;;;4.53;100.00;100842.44;5014287;28;20240;-72
2023/03/02 09:45:50;;;;;;;2.80;2.70;;;;;;;4.52;100.00;100826.97;5002408;28;20224;-72
2023/03/02 09:48:27;;;;;;;3.03;2.83;;;;;;;4.54;100.00;100830.47;4953332;29;20207;-72
2023/03/02 09:51:07;;;;;;;1.53;1.53;;;;;;;4.80;100.00;100825.88;4953594;29;20206;-75
2023/03/02 09:53:44;;;;;;;0.90;0.90;;;;;;;4.81;100.00;100829.31;4953327;29;20321;-74
2023/03/02 09:56:15;;;;;;;2.20;2.10;;;;;;;4.66;100.00;100834.56;4905798;29;20557;-76
2023/03/02 09:58:48;;;;;;;4.37;4.07;;;;;;;4.75;100.00;100834.13;4939837;29;20246;-75
2023/03/02 10:01:28;;;;;;;0.80;0.80;;;;;;;4.78;100.00;100834.31;4953396;29;20310;-75
2023/03/02 10:04:03;;;;;;;0.90;0.90;;;;;;;4.90;100.00;100842.59;4921265;29;20206;-75
2023/03/02 10:06:29;;;;;;;27.83;2.60;;;;;;;4.55;100.00;100806.56;4953390;29;20650;-75
2023/03/02 10:08:56;;;;;;;1.20;1.20;;;;;;;4.61;100.00;100840.25;4953156;29;20199;-74
2023/03/02 10:11:36;;;;;;;1.43;1.43;;;;;;;4.43;100.00;100815.41;4953153;29;20687;-75
2023/03/02 10:14:10;;;;;;;2.27;2.17;;;;;;;4.68;100.00;100814.09;4900601;29;20314;-75
2023/03/02 10:16:46;;;;;;;1.33;1.27;;;;;;;4.62;100.00;100826.63;4945456;29;20733;-75
2023/03/02 10:19:20;;;;;;;0.80;0.80;;;;;;;4.85;100.00;100803.84;4952883;29;20245;-75
2023/03/02 10:21:51;;;;;;;1.00;1.00;;;;;;;5.10;100.00;100834.19;4951791;28;20210;-75
2023/03/02 10:24:29;;;;;;;1.20;1.20;;;;;;;4.89;100.00;100840.84;4953304;29;20203;-75
2023/03/02 10:27:01;;;;;;;3.17;2.43;;;;;;;4.92;100.00;100834.16;5013596;28;20208;-75
2023/03/02 10:29:45;;;;;;;1.63;1.63;;;;;;;5.07;100.00;100830.56;4978926;28;20209;-75
2023/03/02 10:32:22;;;;;;;2.47;1.97;;;;;;;5.34;100.00;100811.34;5013437;28;20630;-73
2023/03/02 10:34:50;;;;;;;0.77;0.77;;;;;;;5.10;100.00;100826.47;5013454;28;20208;-73
2023/03/02 10:37:20;;;;;;;0.70;0.70;;;;;;;5.12;100.00;100832.59;5013428;28;20240;-73
2023/03/02 10:39:47;;;;;;;2.70;2.60;;;;;;;4.92;100.00;100812.75;5013299;28;20597;-73
2023/03/02 10:42:18;;;;;;;3.33;3.03;;;;;;;4.67;100.00;100804.63;5013144;28;20219;-74
2023/03/02 10:44:51;;;;;;;0.80;0.80;;;;;;;5.00;100.00;100816.56;5013151;28;20692;-73
2023/03/02 10:47:26;;;;;;;2.23;2.13;;;;;;;4.99;100.00;100819.94;5013438;28;20204;-74
2023/03/02 10:49:54;;;;;;;0.90;0.90;;;;;;;4.84;100.00;100814.06;5014732;28;20652;-75
2023/03/02 10:52:23;;;;;;;2.30;1.70;;;;;;;5.07;100.00;100821.19;5013346;28;20215;-75
2023/03/02 10:55:01;;;;;;;1.23;0.97;;;;;;;5.01;100.00;100792.63;5013084;28;20213;-76
2023/03/02 10:57:36;;;;;;;0.60;0.60;;;;;;;5.10;100.00;100792.19;5013258;28;20208;-73
2023/03/02 11:00:14;;;;;;;0.70;0.70;;;;;;;5.26;100.00;100816.13;4994760;28;20224;-74
2023/03/02 11:02:49;;;;;;;3.70;1.30;;;;;;;5.28;100.00;100796.50;5012857;28;20215;-74
2023/03/02 11:05:29;;;;;;;0.70;0.70;;;;;;;5.23;100.00;100810.84;4994733;28;20212;-74
2023/03/02 11:07:58;;;;;;;1.27;1.27;;;;;;;5.11;100.00;100811.94;5012958;28;20572;-74
2023/03/02 11:10:27;;;;;;;1.17;1.17;;;;;;;4.93;100.00;100775.94;5012800;28;20197;-73
2023/03/02 11:12:55;;;;;;;1.00;1.00;;;;;;;5.06;100.00;100801.47;5012696;28;20667;-73
2023/03/02 11:15:25;;;;;;;2.90;1.50;;;;;;;5.08;100.00;100807.53;5012660;28;20236;-74
2023/03/02 11:18:01;;;;;;;0.70;0.70;;;;;;;5.00;100.00;100722.34;5012475;28;20193;-75
2023/03/02 11:20:31;;;;;;;1.00;1.00;;;;;;;5.38;100.00;100805.56;5012668;28;20200;-75
2023/03/02 11:23:08;;;;;;;0.77;0.77;;;;;;;5.06;100.00;100796.31;5012486;28;20259;-75
2023/03/02 11:25:39;;;;;;;0.83;0.83;;;;;;;5.05;100.00;100804.81;4994199;28;20575;-74
2023/03/02 11:28:15;;;;;;;1.00;1.00;;;;;;;4.94;100.00;100798.28;5012225;28;20668;-74
2023/03/02 11:30:47;;;;;;;3.90;1.53;;;;;;;4.81;100.00;100790.78;5012407;28;20213;-74
2023/03/02 11:33:21;;;;;;;0.90;0.90;;;;;;;4.87;100.00;100770.53;5012347;28;20233;-74